Time;durP1;ratioP1;P1;durP2;ratioP2;P2;SDS_P1;SDS_P2;PMS_P1;PMS_P2;Temp;Humidity;BMP_temperature;BMP_pressure;BME280_temperature;BME280_humidity;BME280_pressure;Samples;Min_cycle;Max_cycle;Signal;HPM_P1;HPM_P2
2021/04/19 00:00:30;;;;;;;1.65;1.55;;;17.90;51.10;;;;;;5092596;28;20189;-64
2021/04/19 00:02:55;;;;;;;1.63;1.52;;;17.90;51.20;;;;;;5092274;28;20256;-65
2021/04/19 00:05:21;;;;;;;1.38;1.30;;;17.90;51.20;;;;;;5074519;28;20170;-66
2021/04/19 00:07:47;;;;;;;1.90;1.40;;;17.90;51.20;;;;;;5074688;28;20566;-66
2021/04/19 00:10:16;;;;;;;1.73;1.48;;;17.90;51.20;;;;;;5074129;28;20170;-64
2021/04/19 00:12:42;;;;;;;1.60;1.50;;;17.90;51.20;;;;;;5074583;28;20230;-63
2021/04/19 00:15:10;;;;;;;1.60;1.50;;;17.90;51.20;;;;;;5074637;28;20264;-67
2021/04/19 00:17:35;;;;;;;1.80;1.70;;;17.90;51.20;;;;;;5091778;28;20197;-63
2021/04/19 00:20:01;;;;;;;2.38;1.50;;;17.90;51.20;;;;;;5092405;28;20210;-63
2021/04/19 00:22:26;;;;;;;1.88;1.70;;;17.90;51.20;;;;;;5073739;28;20181;-64
2021/04/19 00:24:52;;;;;;;2.33;1.58;;;17.90;51.80;;;;;;5074478;28;20248;-63
2021/04/19 00:27:18;;;;;;;1.67;1.50;;;17.80;51.20;;;;;;5092777;28;20185;-64
2021/04/19 00:29:43;;;;;;;1.60;1.50;;;17.80;51.10;;;;;;5057044;28;20199;-64
2021/04/19 00:32:09;;;;;;;1.73;1.50;;;17.80;51.10;;;;;;5092424;28;20173;-64
2021/04/19 00:34:34;;;;;;;2.10;1.50;;;17.80;51.80;;;;;;5092172;28;20247;-65
2021/04/19 00:37:00;;;;;;;1.85;1.75;;;17.80;51.20;;;;;;5091882;28;20636;-64
2021/04/19 00:39:25;;;;;;;1.70;1.60;;;17.80;51.10;;;;;;5092236;28;20686;-65
2021/04/19 00:41:51;;;;;;;1.35;1.20;;;17.80;51.10;;;;;;5092489;28;20177;-64
2021/04/19 00:44:18;;;;;;;1.50;1.40;;;17.80;51.10;;;;;;5091766;28;20204;-72
2021/04/19 00:46:45;;;;;;;1.48;1.35;;;17.80;51.20;;;;;;5074464;28;20166;-68
2021/04/19 00:49:10;;;;;;;1.92;1.83;;;17.80;51.10;;;;;;5074548;28;20174;-70
2021/04/19 00:51:37;;;;;;;1.38;1.23;;;17.80;51.20;;;;;;5073539;28;20173;-62
2021/04/19 00:54:02;;;;;;;1.98;1.88;;;17.70;51.10;;;;;;5077768;28;20170;-63
2021/04/19 00:56:28;;;;;;;1.85;1.25;;;17.70;51.10;;;;;;5078010;28;20532;-71
2021/04/19 00:58:53;;;;;;;1.65;1.42;;;17.70;51.20;;;;;;5060602;28;20672;-63
2021/04/19 01:01:19;;;;;;;2.20;1.58;;;17.70;51.20;;;;;;5095970;28;20188;-66
2021/04/19 01:03:44;;;;;;;2.13;1.65;;;17.70;51.10;;;;;;5078008;28;20194;-64
2021/04/19 01:06:10;;;;;;;1.80;1.67;;;17.70;51.20;;;;;;5095404;28;20170;-69
2021/04/19 01:08:36;;;;;;;1.70;1.60;;;17.70;51.10;;;;;;5095680;28;20166;-64
2021/04/19 01:11:02;;;;;;;1.25;1.15;;;17.70;51.10;;;;;;5061203;28;20181;-64
2021/04/19 01:13:27;;;;;;;2.22;1.73;;;17.70;51.20;;;;;;5077085;28;20222;-64
2021/04/19 01:15:53;;;;;;;2.20;1.98;;;17.70;51.10;;;;;;5095857;28;20166;-64
2021/04/19 01:18:19;;;;;;;2.20;2.00;;;17.70;51.10;;;;;;5077413;28;20603;-63
2021/04/19 01:20:48;;;;;;;1.50;1.30;;;17.70;51.10;;;;;;5094909;28;20253;-71
2021/04/19 01:23:14;;;;;;;1.85;1.48;;;17.70;51.00;;;;;;5077704;28;20180;-64
2021/04/19 01:25:40;;;;;;;1.70;1.60;;;17.70;51.10;;;;;;5095264;28;20162;-63
2021/04/19 01:28:06;;;;;;;1.70;1.60;;;17.70;51.10;;;;;;5076960;28;20177;-69
2021/04/19 01:30:37;;;;;;;1.55;1.45;;;17.70;51.10;;;;;;5095343;28;20586;-69
2021/04/19 01:33:03;;;;;;;1.60;1.50;;;17.60;51.00;;;;;;5094792;28;20660;-64
2021/04/19 01:35:29;;;;;;;1.73;1.63;;;17.60;51.00;;;;;;5060494;28;20231;-64
2021/04/19 01:37:55;;;;;;;1.95;1.67;;;17.60;51.00;;;;;;5060488;28;20681;-70
2021/04/19 01:40:20;;;;;;;1.80;1.67;;;17.60;51.00;;;;;;5076637;28;20502;-65
2021/04/19 01:42:46;;;;;;;2.00;1.80;;;17.60;51.00;;;;;;5095375;28;20174;-64
2021/04/19 01:45:13;;;;;;;1.75;1.65;;;17.60;51.00;;;;;;5060477;28;20199;-72
2021/04/19 01:47:38;;;;;;;2.30;1.77;;;17.60;51.00;;;;;;5076375;28;20634;-64
2021/04/19 01:50:11;;;;;;;1.70;1.60;;;17.60;50.90;;;;;;5060343;28;20659;-63
2021/04/19 01:52:37;;;;;;;1.77;1.67;;;17.60;51.00;;;;;;5094950;28;20166;-62
2021/04/19 01:55:08;;;;;;;1.60;1.50;;;17.60;51.00;;;;;;5059675;28;20177;-63
2021/04/19 01:57:34;;;;;;;2.17;1.98;;;17.60;50.90;;;;;;5060524;28;20365;-71
2021/04/19 01:59:59;;;;;;;1.65;1.50;;;17.60;51.00;;;;;;5060276;28;20267;-64
2021/04/19 02:02:34;;;;;;;2.08;1.60;;;17.60;51.50;;;;;;5094058;28;20181;-65
2021/04/19 02:05:08;;;;;;;1.88;1.77;;;17.60;50.90;;;;;;5060245;28;20628;-65
2021/04/19 02:08:06;;;;;;;1.90;1.80;;;17.50;50.90;;;;;;5094455;28;20173;-64
2021/04/19 02:10:42;;;;;;;1.70;1.60;;;17.50;50.90;;;;;;5004767;28;20710;-64
2021/04/19 02:13:08;;;;;;;1.58;1.48;;;17.50;50.90;;;;;;5076787;28;20177;-63
2021/04/19 02:15:43;;;;;;;1.95;1.85;;;17.50;50.90;;;;;;5093769;28;20193;-63
2021/04/19 02:18:35;;;;;;;1.67;1.50;;;17.50;50.90;;;;;;5076982;28;20301;-62
2021/04/19 02:21:09;;;;;;;1.77;1.67;;;17.50;50.90;;;;;;5060645;28;20214;-64
2021/04/19 02:23:40;;;;;;;1.98;1.88;;;17.50;50.90;;;;;;5059315;28;20621;-62
2021/04/19 02:26:29;;;;;;;1.77;1.65;;;17.50;50.90;;;;;;5094447;28;20543;-67
2021/04/19 02:29:03;;;;;;;1.70;1.60;;;17.50;50.90;;;;;;5030717;28;20186;-63
2021/04/19 02:31:34;;;;;;;1.85;1.75;;;17.50;50.90;;;;;;5094075;28;20170;-64
2021/04/19 02:33:59;;;;;;;1.88;1.70;;;17.50;50.90;;;;;;5060286;28;20166;-68
2021/04/19 02:36:25;;;;;;;1.83;1.67;;;17.50;50.90;;;;;;5075683;28;20181;-65
2021/04/19 02:38:52;;;;;;;1.77;1.65;;;17.50;50.90;;;;;;5042619;28;20263;-69
2021/04/19 02:41:19;;;;;;;2.42;1.63;;;17.50;50.90;;;;;;5076209;28;20536;-64
2021/04/19 02:43:44;;;;;;;1.70;1.60;;;17.40;50.80;;;;;;5058821;28;20645;-64
2021/04/19 02:46:10;;;;;;;1.92;1.75;;;17.40;50.80;;;;;;5076093;28;20177;-68
2021/04/19 02:48:36;;;;;;;1.75;1.60;;;17.40;50.80;;;;;;5075872;28;20177;-62
2021/04/19 02:51:04;;;;;;;2.28;1.75;;;17.40;50.80;;;;;;5058756;28;20182;-71
2021/04/19 02:53:30;;;;;;;2.17;1.83;;;17.40;50.80;;;;;;5093665;28;20177;-64
2021/04/19 02:55:55;;;;;;;2.10;1.73;;;17.40;50.80;;;;;;5059146;28;20170;-71
2021/04/19 02:58:45;;;;;;;2.42;1.92;;;17.40;50.80;;;;;;5058307;28;20606;-64
2021/04/19 03:01:19;;;;;;;1.88;1.52;;;17.40;50.80;;;;;;5078516;28;20644;-64
2021/04/19 03:03:45;;;;;;;1.83;1.58;;;17.40;50.80;;;;;;5059958;28;20606;-69
2021/04/19 03:06:11;;;;;;;1.90;1.80;;;17.40;50.80;;;;;;5074904;28;20161;-65
2021/04/19 03:08:38;;;;;;;2.38;2.13;;;17.40;50.80;;;;;;5058784;28;20170;-66
2021/04/19 03:11:19;;;;;;;2.53;1.90;;;17.40;50.80;;;;;;5059042;28;20173;-63
2021/04/19 03:13:45;;;;;;;2.20;1.98;;;17.30;50.80;;;;;;5076054;28;20509;-70
2021/04/19 03:16:10;;;;;;;1.83;1.70;;;17.40;50.80;;;;;;5058126;28;20174;-64
2021/04/19 03:18:36;;;;;;;2.90;1.88;;;17.30;50.80;;;;;;5041386;28;20275;-71
2021/04/19 03:21:15;;;;;;;2.28;2.08;;;17.30;50.80;;;;;;5058510;28;20728;-63
2021/04/19 03:23:45;;;;;;;2.40;2.10;;;17.30;50.80;;;;;;5075331;28;20215;-63
2021/04/19 03:26:12;;;;;;;1.80;1.60;;;17.30;50.80;;;;;;5074655;28;20508;-63
2021/04/19 03:28:38;;;;;;;3.55;1.83;;;17.30;50.80;;;;;;5075250;28;20672;-63
2021/04/19 03:31:06;;;;;;;1.90;1.67;;;17.30;50.80;;;;;;5041790;28;20663;-63
2021/04/19 03:33:33;;;;;;;2.17;1.98;;;17.30;50.80;;;;;;5057729;28;20181;-64
2021/04/19 03:36:00;;;;;;;1.98;1.88;;;17.30;50.80;;;;;;5058532;28;20169;-64
2021/04/19 03:38:26;;;;;;;2.30;2.10;;;17.30;50.80;;;;;;5058249;28;20288;-64
2021/04/19 03:40:51;;;;;;;1.80;1.70;;;17.30;50.80;;;;;;5058009;28;20166;-72
2021/04/19 03:43:18;;;;;;;2.53;2.08;;;17.30;50.80;;;;;;5075228;28;20234;-71
2021/04/19 03:45:44;;;;;;;3.03;1.83;;;17.30;50.80;;;;;;5075026;28;20177;-71
2021/04/19 03:48:14;;;;;;;2.05;1.80;;;17.30;50.90;;;;;;5057763;28;20765;-63
2021/04/19 03:50:43;;;;;;;2.40;2.03;;;17.30;50.90;;;;;;5058158;28;20170;-70
2021/04/19 03:53:09;;;;;;;1.92;1.80;;;17.30;50.80;;;;;;5058525;28;20177;-64
2021/04/19 03:55:34;;;;;;;1.98;1.70;;;17.20;50.80;;;;;;5074018;28;20170;-66
2021/04/19 03:58:00;;;;;;;2.60;1.90;;;17.30;50.90;;;;;;5041246;28;20292;-64
2021/04/19 04:00:26;;;;;;;2.20;1.75;;;17.30;50.80;;;;;;5057827;28;20180;-64
2021/04/19 04:02:53;;;;;;;2.13;1.75;;;17.20;50.80;;;;;;5057663;28;20507;-64
2021/04/19 04:05:19;;;;;;;2.47;1.98;;;17.20;50.90;;;;;;5057848;28;20178;-64
2021/04/19 04:07:45;;;;;;;2.08;1.83;;;17.20;50.80;;;;;;5057784;28;20162;-68
2021/04/19 04:10:11;;;;;;;2.35;2.03;;;17.20;50.90;;;;;;5057816;28;20520;-62
2021/04/19 04:12:36;;;;;;;2.78;1.90;;;17.20;50.90;;;;;;5057884;28;20177;-69
2021/04/19 04:15:02;;;;;;;2.00;1.90;;;17.20;50.90;;;;;;5073953;28;20656;-63
2021/04/19 04:17:28;;;;;;;2.45;2.20;;;17.20;50.90;;;;;;5092387;28;20256;-63
2021/04/19 04:19:54;;;;;;;1.67;1.58;;;17.20;50.90;;;;;;5074457;28;20684;-66
2021/04/19 04:22:19;;;;;;;1.95;1.85;;;17.20;50.90;;;;;;5073799;28;20228;-64
2021/04/19 04:24:45;;;;;;;2.30;2.10;;;17.20;50.90;;;;;;5057963;28;20197;-70
2021/04/19 04:27:11;;;;;;;2.15;2.00;;;17.20;50.90;;;;;;5077183;28;20286;-63
2021/04/19 04:29:36;;;;;;;1.60;1.50;;;17.20;50.90;;;;;;5077852;28;20613;-62
2021/04/19 04:32:02;;;;;;;2.33;1.98;;;17.20;50.90;;;;;;5096577;28;20181;-63
2021/04/19 04:34:28;;;;;;;2.88;2.28;;;17.20;50.90;;;;;;5061582;28;20181;-64
2021/04/19 04:36:54;;;;;;;1.70;1.60;;;17.20;51.00;;;;;;5077900;28;20177;-64
2021/04/19 04:39:19;;;;;;;2.08;1.90;;;17.20;50.90;;;;;;5078254;28;20208;-68
2021/04/19 04:41:45;;;;;;;2.22;1.90;;;17.10;50.90;;;;;;5078484;28;20535;-68
2021/04/19 04:44:13;;;;;;;2.05;1.90;;;17.20;50.90;;;;;;5095656;28;20182;-62
2021/04/19 04:47:17;;;;;;;2.00;1.80;;;17.20;50.90;;;;;;5061852;28;20265;-62
2021/04/19 04:50:08;;;;;;;3.10;2.35;;;17.10;51.50;;;;;;5073361;28;20641;-63
2021/04/19 04:53:04;;;;;;;3.28;1.90;;;17.10;50.90;;;;;;5096161;28;20173;-62
2021/04/19 04:55:31;;;;;;;2.10;1.90;;;17.10;50.90;;;;;;5075526;28;20177;-63
2021/04/19 04:57:56;;;;;;;2.15;2.05;;;17.10;51.50;;;;;;5077441;28;20602;-69
2021/04/19 05:00:22;;;;;;;2.35;1.85;;;17.10;50.90;;;;;;5061348;28;20170;-64
2021/04/19 05:02:48;;;;;;;2.47;1.77;;;17.10;50.90;;;;;;5061408;28;20249;-66
2021/04/19 05:05:15;;;;;;;2.17;1.98;;;17.10;51.00;;;;;;5077508;28;20174;-65
2021/04/19 05:07:41;;;;;;;1.80;1.60;;;17.10;51.00;;;;;;5061180;28;20159;-64
2021/04/19 05:10:08;;;;;;;2.05;1.90;;;17.10;51.00;;;;;;5061198;28;20185;-63
2021/04/19 05:12:33;;;;;;;1.90;1.80;;;17.10;50.90;;;;;;5077201;28;20222;-63
2021/04/19 05:15:00;;;;;;;2.20;1.75;;;17.20;51.00;;;;;;5044319;28;20264;-63
2021/04/19 05:17:25;;;;;;;1.40;1.30;;;17.30;51.00;;;;;;5077670;28;20276;-68
2021/04/19 05:19:51;;;;;;;1.70;1.60;;;17.30;51.00;;;;;;5060351;28;20638;-62
2021/04/19 05:22:17;;;;;;;1.70;1.60;;;17.40;50.80;;;;;;5061208;28;20566;-63
2021/04/19 05:24:43;;;;;;;1.80;1.70;;;17.50;50.80;;;;;;5077290;28;20249;-62
2021/04/19 05:27:10;;;;;;;2.10;1.90;;;17.70;50.50;;;;;;5094980;28;20174;-62
2021/04/19 05:29:36;;;;;;;1.98;1.70;;;17.80;51.00;;;;;;5043971;28;20607;-69
2021/04/19 05:32:02;;;;;;;1.92;1.73;;;17.90;50.20;;;;;;5060175;28;20202;-63
2021/04/19 05:34:27;;;;;;;3.70;1.80;;;18.10;49.90;;;;;;5077080;28;20272;-68
2021/04/19 05:36:53;;;;;;;1.50;1.40;;;18.20;49.80;;;;;;5043997;28;20182;-67
2021/04/19 05:39:18;;;;;;;1.85;1.40;;;18.30;49.60;;;;;;5059038;28;20252;-65
2021/04/19 05:41:44;;;;;;;1.58;1.48;;;18.40;49.60;;;;;;5060657;28;20170;-63
2021/04/19 05:44:09;;;;;;;2.45;1.88;;;18.40;49.40;;;;;;5077177;28;20256;-63
2021/04/19 05:46:35;;;;;;;1.38;1.27;;;18.40;49.30;;;;;;5043118;28;20638;-71
2021/04/19 05:49:01;;;;;;;2.05;1.60;;;18.40;49.30;;;;;;5060523;28;20602;-62
2021/04/19 05:51:35;;;;;;;1.65;1.55;;;18.40;49.40;;;;;;5095018;28;20174;-63
2021/04/19 05:54:01;;;;;;;1.90;1.80;;;18.40;49.50;;;;;;5043104;28;20177;-69
2021/04/19 05:56:36;;;;;;;3.60;1.85;;;18.40;49.50;;;;;;5076755;28;20174;-68
2021/04/19 05:59:10;;;;;;;1.60;1.50;;;18.50;49.50;;;;;;5094933;28;20209;-63
2021/04/19 06:01:35;;;;;;;1.70;1.60;;;18.50;49.40;;;;;;5076193;28;20194;-71
2021/04/19 06:04:22;;;;;;;1.60;1.50;;;18.50;49.40;;;;;;5060046;28;20201;-70
2021/04/19 06:07:03;;;;;;;1.77;1.63;;;18.50;49.40;;;;;;5094735;28;20193;-64
2021/04/19 06:09:49;;;;;;;1.77;1.50;;;18.50;49.40;;;;;;5060150;28;20197;-66
2021/04/19 06:12:17;;;;;;;1.80;1.67;;;18.40;49.50;;;;;;5061020;28;20219;-59
2021/04/19 06:14:44;;;;;;;1.90;1.80;;;18.40;49.60;;;;;;5059423;28;20166;-60
2021/04/19 06:17:09;;;;;;;2.17;1.98;;;18.30;49.80;;;;;;5094608;28;20178;-60
2021/04/19 06:19:39;;;;;;;1.92;1.63;;;18.20;50.10;;;;;;5059447;28;20688;-61
2021/04/19 06:22:05;;;;;;;2.13;1.70;;;18.20;50.20;;;;;;5059150;28;20234;-60
2021/04/19 06:24:31;;;;;;;3.28;1.90;;;18.10;50.30;;;;;;5076207;28;20680;-67
2021/04/19 06:26:58;;;;;;;2.08;1.60;;;18.10;50.60;;;;;;5076293;28;20166;-62
2021/04/19 06:29:27;;;;;;;2.22;1.83;;;18.00;50.90;;;;;;5042302;28;20520;-66
2021/04/19 06:31:53;;;;;;;5.88;1.65;;;18.00;51.00;;;;;;5076142;28;20169;-63
2021/04/19 06:34:19;;;;;;;2.97;1.70;;;17.90;51.80;;;;;;5059209;28;20555;-65
2021/04/19 06:36:45;;;;;;;2.65;1.60;;;17.90;51.20;;;;;;5058876;28;20166;-66
2021/04/19 06:39:12;;;;;;;3.70;1.95;;;17.90;51.40;;;;;;5059178;28;20296;-64
2021/04/19 06:41:38;;;;;;;4.03;1.65;;;17.90;51.50;;;;;;5059221;28;20170;-64
2021/04/19 06:44:04;;;;;;;4.43;2.03;;;17.90;51.50;;;;;;5058647;28;20299;-63
2021/04/19 06:46:31;;;;;;;3.17;1.75;;;17.80;51.50;;;;;;5059190;28;20250;-63
2021/04/19 06:48:56;;;;;;;4.25;1.73;;;17.90;51.70;;;;;;5093625;28;20751;-63
2021/04/19 06:51:22;;;;;;;2.25;1.75;;;17.90;51.70;;;;;;5057334;28;20269;-63
2021/04/19 06:53:52;;;;;;;3.35;1.75;;;17.90;52.30;;;;;;5075577;28;20189;-63
2021/04/19 06:56:22;;;;;;;5.32;2.63;;;17.90;51.70;;;;;;5058770;28;20170;-71
2021/04/19 06:58:50;;;;;;;2.35;1.33;;;18.00;51.90;;;;;;5093568;28;20221;-67
2021/04/19 07:01:18;;;;;;;6.45;2.15;;;18.00;51.80;;;;;;5059285;28;20176;-67
2021/04/19 07:03:44;;;;;;;4.80;1.98;;;18.00;51.70;;;;;;5058536;28;20170;-64
2021/04/19 07:06:09;;;;;;;1.67;1.58;;;18.00;51.80;;;;;;5075666;28;20166;-64
2021/04/19 07:08:40;;;;;;;2.88;1.98;;;18.00;51.60;;;;;;5058798;28;20252;-70
2021/04/19 07:11:06;;;;;;;4.32;1.90;;;18.10;51.80;;;;;;5075001;28;20168;-76
2021/04/19 07:13:33;;;;;;;5.38;2.15;;;18.00;51.90;;;;;;5058736;28;20174;-64
2021/04/19 07:15:58;;;;;;;6.43;2.30;;;18.00;52.20;;;;;;5058716;28;20189;-64
2021/04/19 07:18:24;;;;;;;3.25;2.60;;;17.90;52.00;;;;;;5092643;28;20669;-72
2021/04/19 07:20:50;;;;;;;3.05;2.10;;;18.00;52.20;;;;;;5058322;28;20275;-70
2021/04/19 07:23:15;;;;;;;2.92;2.08;;;18.00;52.30;;;;;;5058854;28;20176;-64
2021/04/19 07:25:44;;;;;;;5.30;1.90;;;17.90;52.20;;;;;;5092524;28;20540;-63
2021/04/19 07:28:10;;;;;;;5.03;2.08;;;17.90;52.20;;;;;;5058820;28;20262;-65
2021/04/19 07:30:35;;;;;;;3.50;1.83;;;18.00;52.40;;;;;;5075019;28;20244;-72
2021/04/19 07:33:01;;;;;;;3.50;2.17;;;18.00;52.30;;;;;;5092611;28;20169;-72
2021/04/19 07:35:31;;;;;;;3.92;2.55;;;17.90;52.50;;;;;;5041546;28;20261;-73
2021/04/19 07:38:02;;;;;;;4.05;2.45;;;17.90;52.60;;;;;;5093080;28;20602;-73
2021/04/19 07:40:43;;;;;;;4.70;2.50;;;17.90;52.50;;;;;;5058356;28;20165;-73
2021/04/19 07:43:16;;;;;;;2.30;2.03;;;17.80;52.60;;;;;;5059010;28;20177;-75
2021/04/19 07:46:08;;;;;;;4.63;2.10;;;17.80;52.80;;;;;;5057618;28;20649;-63
2021/04/19 07:48:46;;;;;;;2.63;2.42;;;17.70;52.80;;;;;;5092857;28;20697;-73
2021/04/19 07:51:34;;;;;;;4.90;2.50;;;17.70;52.90;;;;;;5058601;28;20165;-62
2021/04/19 07:54:20;;;;;;;2.25;2.05;;;17.70;52.90;;;;;;5058106;28;20157;-73
2021/04/19 07:57:08;;;;;;;2.78;2.00;;;17.70;53.00;;;;;;5074861;28;20700;-63
2021/04/19 07:59:34;;;;;;;2.90;2.10;;;17.70;53.00;;;;;;5092627;28;20209;-66
2021/04/19 08:02:14;;;;;;;2.72;1.95;;;17.60;53.00;;;;;;5057537;28;20356;-64
2021/04/19 08:04:50;;;;;;;3.58;2.60;;;17.70;53.00;;;;;;5074575;28;20696;-64
2021/04/19 08:07:17;;;;;;;3.60;2.22;;;17.70;53.00;;;;;;5074809;28;20193;-69
2021/04/19 08:09:52;;;;;;;5.68;2.25;;;17.70;53.10;;;;;;5057975;28;20216;-64
2021/04/19 08:12:17;;;;;;;3.22;2.05;;;17.70;53.00;;;;;;5076191;28;20263;-73
2021/04/19 08:14:53;;;;;;;2.63;2.15;;;17.70;53.00;;;;;;5073758;28;20245;-63
2021/04/19 08:17:18;;;;;;;2.35;2.13;;;17.70;53.00;;;;;;5058079;28;20161;-63
2021/04/19 08:19:44;;;;;;;4.15;2.67;;;17.70;52.90;;;;;;5074562;28;20557;-63
2021/04/19 08:22:18;;;;;;;2.17;1.98;;;17.70;52.90;;;;;;5074125;28;20166;-64
2021/04/19 08:24:44;;;;;;;3.85;2.00;;;17.70;52.80;;;;;;5074934;28;20235;-73
2021/04/19 08:27:23;;;;;;;2.90;2.40;;;17.70;52.90;;;;;;5058176;28;20574;-63
2021/04/19 08:29:49;;;;;;;4.78;2.10;;;17.70;52.90;;;;;;5091885;28;20260;-70
2021/04/19 08:32:22;;;;;;;3.75;1.95;;;17.70;52.90;;;;;;5058002;28;20252;-65
2021/04/19 08:34:49;;;;;;;3.97;2.17;;;17.70;52.90;;;;;;5057988;28;20226;-64
2021/04/19 08:37:22;;;;;;;2.65;1.88;;;17.70;52.90;;;;;;5058311;28;20216;-72
2021/04/19 08:39:48;;;;;;;1.92;1.80;;;17.70;52.90;;;;;;5074264;28;20178;-64
2021/04/19 08:42:13;;;;;;;2.20;1.95;;;17.70;52.90;;;;;;5073937;28;20211;-65
2021/04/19 08:44:40;;;;;;;2.15;1.88;;;17.70;52.90;;;;;;5092259;28;20185;-64
2021/04/19 08:47:06;;;;;;;2.35;2.15;;;17.70;52.90;;;;;;5074195;28;20204;-72
2021/04/19 08:49:32;;;;;;;2.47;2.08;;;17.70;52.90;;;;;;5073704;28;20162;-63
2021/04/19 08:51:58;;;;;;;1.70;1.60;;;17.70;52.90;;;;;;5092249;28;20626;-73
2021/04/19 08:54:24;;;;;;;2.78;1.70;;;17.70;52.90;;;;;;5074136;28;20165;-63
2021/04/19 08:56:49;;;;;;;2.03;1.80;;;17.70;52.90;;;;;;5073614;28;20174;-64
2021/04/19 08:59:16;;;;;;;3.05;2.05;;;17.80;52.90;;;;;;5074200;28;20247;-69
2021/04/19 09:01:42;;;;;;;3.63;1.95;;;17.80;52.90;;;;;;5074108;28;20644;-63
2021/04/19 09:04:08;;;;;;;2.33;1.88;;;17.80;52.90;;;;;;5056939;28;20177;-66
2021/04/19 09:06:44;;;;;;;3.65;1.88;;;17.90;52.80;;;;;;5057373;28;20170;-73
2021/04/19 09:09:32;;;;;;;2.30;1.70;;;17.90;52.80;;;;;;5074749;28;20166;-63
2021/04/19 09:12:10;;;;;;;3.22;1.92;;;18.00;52.70;;;;;;5091522;28;20636;-73
2021/04/19 09:14:40;;;;;;;2.03;1.80;;;18.00;52.60;;;;;;5094734;28;20178;-64
2021/04/19 09:17:06;;;;;;;2.25;2.05;;;18.00;52.60;;;;;;5077160;28;20169;-63
2021/04/19 09:19:33;;;;;;;3.25;2.03;;;17.90;52.60;;;;;;5095505;28;20214;-73
2021/04/19 09:22:12;;;;;;;1.70;1.60;;;18.00;52.70;;;;;;5061083;28;20338;-66
2021/04/19 09:24:59;;;;;;;2.63;2.25;;;18.00;52.60;;;;;;5060174;28;20169;-64
2021/04/19 09:27:43;;;;;;;2.38;1.77;;;18.00;52.60;;;;;;5095431;28;20200;-70
2021/04/19 09:30:28;;;;;;;2.40;2.20;;;18.00;52.60;;;;;;5095570;28;20224;-64
2021/04/19 09:33:22;;;;;;;2.35;2.13;;;18.00;52.50;;;;;;5076900;28;20648;-65
2021/04/19 09:35:49;;;;;;;2.08;1.90;;;18.00;52.50;;;;;;5074755;28;20220;-65
2021/04/19 09:38:33;;;;;;;2.10;1.83;;;18.10;52.40;;;;;;5076752;28;20627;-64
2021/04/19 09:41:08;;;;;;;2.08;1.83;;;18.10;52.40;;;;;;5077167;28;20182;-63
2021/04/19 09:43:38;;;;;;;2.05;1.85;;;18.10;52.50;;;;;;5077176;28;20166;-62
2021/04/19 09:46:05;;;;;;;2.22;1.85;;;18.00;52.50;;;;;;5060457;28;20170;-63
2021/04/19 09:48:31;;;;;;;1.95;1.85;;;18.00;52.60;;;;;;5060487;28;20649;-63
2021/04/19 09:51:00;;;;;;;1.70;1.58;;;18.00;52.50;;;;;;5095215;28;20177;-69
2021/04/19 09:53:27;;;;;;;1.98;1.73;;;18.00;52.60;;;;;;5043544;28;20184;-65
2021/04/19 09:55:52;;;;;;;2.85;1.95;;;18.00;52.60;;;;;;5060198;28;20199;-62
2021/04/19 09:58:18;;;;;;;1.90;1.75;;;18.10;52.60;;;;;;5060480;28;20802;-64
2021/04/19 10:00:46;;;;;;;2.08;1.88;;;18.00;52.50;;;;;;5094509;28;20694;-64
2021/04/19 10:03:11;;;;;;;2.08;1.73;;;18.00;52.50;;;;;;5077039;28;20716;-72
2021/04/19 10:05:38;;;;;;;2.10;1.83;;;18.10;52.60;;;;;;5076689;28;20201;-64
2021/04/19 10:08:05;;;;;;;1.88;1.77;;;18.00;52.50;;;;;;5076603;28;20168;-64
2021/04/19 10:10:30;;;;;;;2.40;2.20;;;18.10;52.40;;;;;;5076722;28;20534;-63
2021/04/19 10:12:56;;;;;;;1.60;1.50;;;18.00;52.40;;;;;;5060179;28;20167;-70
2021/04/19 10:15:25;;;;;;;2.78;2.05;;;18.00;52.50;;;;;;5075849;28;20617;-63
2021/04/19 10:17:51;;;;;;;2.42;1.92;;;18.10;52.50;;;;;;5076674;28;20244;-64
2021/04/19 10:20:21;;;;;;;3.03;2.13;;;18.10;52.60;;;;;;5075872;28;20685;-64
2021/04/19 10:23:05;;;;;;;2.50;2.30;;;18.20;52.40;;;;;;5094635;28;20157;-73
2021/04/19 10:25:31;;;;;;;2.13;1.67;;;18.30;52.30;;;;;;5059498;28;20174;-64
2021/04/19 10:27:57;;;;;;;2.58;2.08;;;18.20;52.30;;;;;;5076202;28;20166;-76
2021/04/19 10:30:23;;;;;;;2.25;2.05;;;18.20;52.40;;;;;;5094210;28;20177;-72
2021/04/19 10:32:48;;;;;;;1.83;1.70;;;18.20;52.50;;;;;;5059859;28;20717;-65
2021/04/19 10:35:37;;;;;;;2.50;1.80;;;18.10;53.20;;;;;;5075617;28;20265;-65
2021/04/19 10:38:03;;;;;;;2.60;2.40;;;18.10;52.60;;;;;;5076079;28;20224;-64
2021/04/19 10:40:28;;;;;;;2.15;1.95;;;18.10;52.60;;;;;;5094035;28;20194;-71
2021/04/19 10:43:11;;;;;;;3.10;1.77;;;18.20;52.90;;;;;;5075579;28;20270;-71
2021/04/19 10:45:38;;;;;;;2.95;2.13;;;18.20;53.10;;;;;;5093965;28;20166;-71
2021/04/19 10:48:15;;;;;;;2.65;1.73;;;18.20;53.00;;;;;;5075985;28;20174;-72
2021/04/19 10:50:41;;;;;;;2.25;1.70;;;18.20;53.10;;;;;;5093247;28;20226;-62
2021/04/19 10:53:07;;;;;;;2.17;1.98;;;18.20;53.10;;;;;;5096316;28;20172;-62
2021/04/19 10:55:32;;;;;;;2.72;1.90;;;18.20;53.10;;;;;;5102496;28;20170;-62
2021/04/19 10:57:58;;;;;;;2.10;1.90;;;18.20;53.20;;;;;;5067997;28;20197;-62
2021/04/19 11:00:23;;;;;;;2.92;1.80;;;18.20;53.10;;;;;;5085916;28;20606;-63
2021/04/19 11:02:52;;;;;;;3.20;1.70;;;18.20;53.10;;;;;;5083858;28;20165;-63
2021/04/19 11:05:18;;;;;;;2.15;1.90;;;18.20;53.10;;;;;;5084981;28;20237;-63
2021/04/19 11:07:44;;;;;;;1.75;1.40;;;18.30;53.10;;;;;;5063984;28;20601;-66
2021/04/19 11:10:17;;;;;;;2.10;1.90;;;18.30;52.90;;;;;;5074650;28;20189;-72
2021/04/19 11:12:59;;;;;;;2.17;1.90;;;18.30;53.00;;;;;;5093552;28;20252;-71
2021/04/19 11:15:41;;;;;;;1.50;1.40;;;18.30;53.00;;;;;;5093167;28;20704;-71
2021/04/19 11:18:23;;;;;;;1.60;1.50;;;18.30;53.20;;;;;;5076073;28;21188;-73
2021/04/19 11:20:50;;;;;;;1.70;1.60;;;18.20;53.00;;;;;;5093053;28;20221;-64
2021/04/19 11:23:28;;;;;;;3.42;1.90;;;18.20;53.80;;;;;;5075337;28;20162;-64
2021/04/19 11:25:55;;;;;;;3.83;2.05;;;18.20;53.20;;;;;;5074533;28;20214;-64
2021/04/19 11:28:23;;;;;;;2.60;2.20;;;18.20;53.20;;;;;;5058605;28;20224;-65
2021/04/19 11:30:50;;;;;;;2.85;1.83;;;18.20;53.20;;;;;;5092685;28;20170;-64
2021/04/19 11:33:23;;;;;;;3.47;1.70;;;18.20;53.20;;;;;;5075462;28;20200;-72
2021/04/19 11:35:51;;;;;;;2.42;1.95;;;18.10;53.10;;;;;;5058797;28;20162;-64
2021/04/19 11:38:22;;;;;;;4.35;2.20;;;18.20;53.10;;;;;;5074568;28;20198;-74
2021/04/19 11:40:51;;;;;;;1.70;1.60;;;18.20;53.00;;;;;;5058741;28;20177;-67
2021/04/19 11:43:31;;;;;;;2.22;1.63;;;18.20;52.90;;;;;;5059194;28;20218;-72
2021/04/19 11:46:04;;;;;;;2.72;2.03;;;18.20;52.90;;;;;;5074618;28;20514;-63
2021/04/19 11:48:31;;;;;;;2.05;1.70;;;18.20;52.80;;;;;;5075105;28;20572;-62
2021/04/19 11:50:57;;;;;;;2.70;1.75;;;18.20;52.80;;;;;;5058334;28;20230;-64
2021/04/19 11:53:23;;;;;;;4.55;1.65;;;18.30;53.00;;;;;;5057322;28;20245;-62
2021/04/19 11:55:49;;;;;;;1.60;1.50;;;18.30;53.00;;;;;;5092585;28;20174;-66
2021/04/19 11:58:14;;;;;;;4.22;1.98;;;18.30;53.00;;;;;;5058277;28;20797;-62
2021/04/19 12:00:40;;;;;;;2.63;1.67;;;18.30;53.00;;;;;;5091992;28;20253;-68
2021/04/19 12:03:06;;;;;;;3.35;1.60;;;18.30;53.00;;;;;;5092624;28;20648;-62
2021/04/19 12:05:31;;;;;;;2.97;1.95;;;18.30;53.00;;;;;;5074445;28;20162;-63
2021/04/19 12:07:57;;;;;;;3.17;1.67;;;18.30;53.00;;;;;;5057256;28;20178;-61
2021/04/19 12:10:23;;;;;;;1.85;1.70;;;18.30;53.10;;;;;;5057625;28;20177;-66
2021/04/19 12:12:48;;;;;;;3.30;1.88;;;18.30;53.10;;;;;;5092106;28;20260;-61
2021/04/19 12:15:17;;;;;;;4.25;1.60;;;18.30;53.20;;;;;;5092639;28;20176;-61
2021/04/19 12:17:43;;;;;;;6.00;2.20;;;18.20;53.80;;;;;;5092527;28;20246;-66
2021/04/19 12:20:09;;;;;;;6.75;2.83;;;18.20;53.40;;;;;;5091586;28;20210;-67
2021/04/19 12:22:34;;;;;;;2.95;2.20;;;18.20;53.10;;;;;;5092398;28;20198;-67
2021/04/19 12:25:00;;;;;;;3.50;1.92;;;18.20;53.20;;;;;;5092383;28;20181;-68
2021/04/19 12:27:25;;;;;;;3.30;2.38;;;18.20;53.20;;;;;;5091883;28;20234;-68
2021/04/19 12:29:51;;;;;;;2.75;2.10;;;18.20;53.20;;;;;;5092482;28;20530;-65
2021/04/19 12:32:17;;;;;;;5.38;2.05;;;18.20;53.20;;;;;;5092625;28;20640;-62
2021/04/19 12:34:42;;;;;;;6.18;2.60;;;18.10;53.10;;;;;;5091610;28;20174;-62
2021/04/19 12:37:08;;;;;;;2.97;2.20;;;18.10;53.10;;;;;;5092542;28;20172;-67
2021/04/19 12:39:34;;;;;;;3.95;1.70;;;18.20;53.10;;;;;;5074045;28;20740;-69
2021/04/19 12:41:59;;;;;;;2.22;2.00;;;18.20;53.10;;;;;;5091820;28;20162;-60
2021/04/19 12:44:25;;;;;;;3.67;2.10;;;18.20;53.00;;;;;;5091929;28;20170;-69
2021/04/19 12:46:54;;;;;;;5.63;2.50;;;18.20;53.00;;;;;;5092715;28;20173;-60
2021/04/19 12:49:21;;;;;;;2.17;1.70;;;18.20;52.90;;;;;;5077583;28;20174;-61
2021/04/19 12:51:47;;;;;;;2.40;2.10;;;18.20;52.90;;;;;;5078590;28;20166;-68
2021/04/19 12:54:13;;;;;;;3.10;2.40;;;18.20;52.90;;;;;;5096308;28;20177;-61
2021/04/19 12:56:39;;;;;;;3.75;1.90;;;18.20;52.80;;;;;;5095408;28;20169;-60